Weather Data

Pearl Creek Farm: 8878 N Farm Road 75, Walnut Grove MO 65770

<== Previous Day (Friday 04 Aug 2017) | Next Day (Sunday 06 Aug 2017) ==>

Summary Precipitation Data For Saturday 05 August 2017

ElementValueUnits
PrecipitationT
Notes(none)
SourcePearl Creek Farm

Summary Temperature Data For Saturday 05 August 2017

ElementValueUnits
High Temperature75 oF
Low Temperature59 oF
Average Temperature66 oF
High Humidity100 %
Low Humidity59 %
Average Humidity76 %
SourceSpringfield-Branson National Airport (SGF)

Detail Temperature Data For Saturday 05 August 2017

Date / TimeTemp (F)RH (%)Dew Pt (F)Report Date / TimeSource
2017-08-05 09:52:00 64 90 61.0 2017-12-29 17:00:26.17417 Springfield-Branson National Airport (SGF)
2017-08-05 10:52:00 65 84 60.0 2017-12-29 17:00:26.17417 Springfield-Branson National Airport (SGF)
2017-08-05 11:52:00 63 97 62.0 2017-12-29 17:00:26.17417 Springfield-Branson National Airport (SGF)
2017-08-05 12:52:00 62 100 62.0 2017-12-29 17:00:26.17417 Springfield-Branson National Airport (SGF)
2017-08-05 23:52:00 66 84 61.0 2017-12-29 17:00:26.17417 Springfield-Branson National Airport (SGF)
2017-08-05 00:52:00 59 78 52.0 2017-12-29 17:00:26.17417 Springfield-Branson National Airport (SGF)
2017-08-05 01:52:00 62 65 50.0 2017-12-29 17:00:26.17417 Springfield-Branson National Airport (SGF)
2017-08-05 02:52:00 61 67 50.0 2017-12-29 17:00:26.17417 Springfield-Branson National Airport (SGF)
2017-08-05 03:52:00 62 70 52.0 2017-12-29 17:00:26.17417 Springfield-Branson National Airport (SGF)
2017-08-05 04:52:00 63 63 50.0 2017-12-29 17:00:26.17417 Springfield-Branson National Airport (SGF)
2017-08-05 05:52:00 65 61 51.0 2017-12-29 17:00:26.17417 Springfield-Branson National Airport (SGF)
2017-08-05 06:52:00 67 59 52.0 2017-12-29 17:00:26.17417 Springfield-Branson National Airport (SGF)
2017-08-05 07:52:00 68 63 55.0 2017-12-29 17:00:26.17417 Springfield-Branson National Airport (SGF)
2017-08-05 08:52:00 69 68 58.0 2017-12-29 17:00:26.17417 Springfield-Branson National Airport (SGF)
2017-08-05 13:52:00 63 100 63.0 2017-12-29 17:00:26.17417 Springfield-Branson National Airport (SGF)
2017-08-05 14:52:00 69 90 66.0 2017-12-29 17:00:26.17417 Springfield-Branson National Airport (SGF)
2017-08-05 15:52:00 74 76 66.0 2017-12-29 17:00:26.17417 Springfield-Branson National Airport (SGF)
2017-08-05 16:52:00 75 69 64.0 2017-12-29 17:00:26.17417 Springfield-Branson National Airport (SGF)
2017-08-05 17:52:00 73 71 63.0 2017-12-29 17:00:26.17417 Springfield-Branson National Airport (SGF)
2017-08-05 18:52:00 71 71 61.0 2017-12-29 17:00:26.17417 Springfield-Branson National Airport (SGF)
2017-08-05 19:52:00 69 73 60.0 2017-12-29 17:00:26.17417 Springfield-Branson National Airport (SGF)
2017-08-05 20:52:00 68 76 60.0 2017-12-29 17:00:26.17417 Springfield-Branson National Airport (SGF)
2017-08-05 21:52:00 68 76 60.0 2017-12-29 17:00:26.17417 Springfield-Branson National Airport (SGF)
2017-08-05 22:52:00 69 73 60.0 2017-12-29 17:00:26.17417 Springfield-Branson National Airport (SGF)

A total of 24 rows are displayed.